Time;durP1;ratioP1;P1;durP2;ratioP2;P2;SDS_P1;SDS_P2;PMS_P1;PMS_P2;Temp;Humidity;BMP_temperature;BMP_pressure;BME280_temperature;BME280_humidity;BME280_pressure;Samples;Min_cycle;Max_cycle;Signal;HPM_P1;HPM_P2
2024/01/09 00:00:01;;;;;;;19.60;12.85;;;-6.60;99.90;;;;;;485219;245;27521;-64
2024/01/09 00:02:02;;;;;;;22.25;11.38;;;-6.70;99.90;;;;;;485197;245;27483;-65
2024/01/09 00:04:04;;;;;;;20.30;11.93;;;-6.70;99.90;;;;;;485179;245;27402;-64
2024/01/09 00:06:06;;;;;;;20.58;13.05;;;-6.70;99.90;;;;;;485072;245;27491;-64
2024/01/09 00:08:07;;;;;;;19.08;12.27;;;-6.70;99.90;;;;;;485211;245;27954;-64
2024/01/09 00:10:08;;;;;;;20.40;12.73;;;-6.70;99.90;;;;;;485228;245;27418;-65
2024/01/09 00:12:09;;;;;;;18.30;11.65;;;-6.70;99.90;;;;;;485209;245;27414;-64
2024/01/09 00:14:11;;;;;;;20.23;12.35;;;-6.70;99.90;;;;;;485171;245;28920;-64
2024/01/09 00:16:12;;;;;;;19.15;11.65;;;-6.70;99.90;;;;;;485213;245;27402;-64
2024/01/09 00:18:13;;;;;;;20.05;12.32;;;-6.70;99.90;;;;;;485214;245;27529;-64
2024/01/09 00:20:14;;;;;;;20.30;11.50;;;-6.70;99.90;;;;;;485213;245;27989;-65
2024/01/09 00:22:16;;;;;;;21.65;12.27;;;-6.70;99.90;;;;;;485196;242;27390;-64
2024/01/09 00:24:17;;;;;;;17.05;10.95;;;-6.70;99.90;;;;;;485181;242;27993;-64
2024/01/09 00:26:18;;;;;;;19.75;11.90;;;-6.70;99.90;;;;;;485227;245;28095;-65
2024/01/09 00:28:20;;;;;;;17.58;11.20;;;-6.80;99.90;;;;;;485207;245;27414;-65
2024/01/09 00:30:21;;;;;;;17.73;11.63;;;-6.70;99.90;;;;;;485205;245;27430;-65
2024/01/09 00:32:22;;;;;;;20.30;11.32;;;-6.70;99.90;;;;;;485210;245;27406;-64
2024/01/09 00:34:23;;;;;;;18.85;12.25;;;-6.70;99.90;;;;;;485179;245;27497;-64
2024/01/09 00:36:25;;;;;;;20.30;11.60;;;-6.80;99.90;;;;;;485198;245;27882;-65
2024/01/09 00:38:26;;;;;;;17.75;11.63;;;-6.80;99.90;;;;;;485202;245;27881;-64
2024/01/09 00:40:27;;;;;;;18.20;11.20;;;-6.80;99.90;;;;;;485179;245;27410;-65
2024/01/09 00:42:28;;;;;;;21.52;12.05;;;-6.80;99.90;;;;;;485181;245;27391;-65
2024/01/09 00:44:30;;;;;;;20.08;10.90;;;-6.80;99.90;;;;;;485169;245;27394;-65
2024/01/09 00:46:31;;;;;;;23.20;12.43;;;-6.80;99.90;;;;;;485217;245;27418;-65
2024/01/09 00:48:32;;;;;;;21.15;11.63;;;-6.80;99.90;;;;;;485199;245;28959;-64
2024/01/09 00:50:33;;;;;;;21.75;12.15;;;-6.80;99.90;;;;;;485204;245;28957;-64
2024/01/09 00:52:35;;;;;;;21.17;12.57;;;-6.80;99.90;;;;;;485205;245;27911;-65
2024/01/09 00:54:36;;;;;;;20.77;10.45;;;-7.00;99.90;;;;;;485183;245;27477;-64
2024/01/09 00:56:37;;;;;;;22.10;12.30;;;-6.80;99.90;;;;;;485192;245;27395;-65
2024/01/09 00:58:38;;;;;;;21.90;12.43;;;-6.90;99.90;;;;;;485199;245;27390;-64
2024/01/09 01:00:40;;;;;;;24.90;13.25;;;-6.90;99.90;;;;;;485212;245;27430;-64
2024/01/09 01:02:41;;;;;;;24.52;13.25;;;-6.90;99.90;;;;;;485197;245;27966;-65
2024/01/09 01:04:42;;;;;;;21.40;11.40;;;-6.90;99.90;;;;;;485171;245;27842;-64
2024/01/09 01:06:44;;;;;;;23.73;12.57;;;-6.80;99.90;;;;;;485071;245;27477;-64
2024/01/09 01:08:45;;;;;;;21.92;12.90;;;-6.90;99.90;;;;;;485208;245;27407;-64
2024/01/09 01:10:46;;;;;;;19.33;11.30;;;-6.80;99.90;;;;;;485216;245;27386;-64
2024/01/09 01:12:47;;;;;;;20.77;12.15;;;-6.90;99.90;;;;;;485207;245;27477;-65
2024/01/09 01:14:49;;;;;;;23.38;12.60;;;-6.90;99.90;;;;;;485170;245;27981;-64
2024/01/09 01:16:50;;;;;;;19.27;12.37;;;-6.80;99.90;;;;;;485202;245;27877;-64
2024/01/09 01:18:51;;;;;;;23.70;11.95;;;-6.90;99.90;;;;;;485186;245;27407;-65
2024/01/09 01:20:52;;;;;;;18.10;11.50;;;-6.90;99.90;;;;;;485199;245;27418;-64
2024/01/09 01:22:54;;;;;;;17.35;10.90;;;-6.90;99.90;;;;;;485197;245;27475;-64
2024/01/09 01:24:55;;;;;;;20.83;11.12;;;-6.90;99.90;;;;;;485175;242;27489;-64
2024/01/09 01:26:56;;;;;;;19.10;12.23;;;-6.90;99.90;;;;;;485194;245;27862;-64
2024/01/09 01:28:57;;;;;;;18.62;10.65;;;-6.90;99.90;;;;;;485196;245;28972;-65
2024/01/09 01:30:59;;;;;;;19.62;11.27;;;-7.00;99.90;;;;;;485191;245;27392;-64
2024/01/09 01:33:00;;;;;;;14.70;10.50;;;-7.00;99.90;;;;;;485216;242;27402;-64
2024/01/09 01:35:01;;;;;;;25.08;11.85;;;-7.00;99.90;;;;;;485162;245;27501;-64
2024/01/09 01:37:02;;;;;;;22.35;11.75;;;-7.00;99.90;;;;;;485185;245;27477;-64
2024/01/09 01:39:04;;;;;;;17.70;10.57;;;-7.00;99.90;;;;;;485154;245;27402;-65
2024/01/09 01:41:05;;;;;;;21.35;11.85;;;-7.00;99.90;;;;;;485198;245;27874;-64
2024/01/09 01:43:06;;;;;;;21.27;11.55;;;-7.00;99.90;;;;;;485190;245;28622;-64
2024/01/09 01:45:07;;;;;;;21.65;12.45;;;-7.00;99.90;;;;;;485146;241;27403;-66
2024/01/09 01:47:09;;;;;;;19.83;11.82;;;-7.00;99.90;;;;;;485195;245;27406;-64
2024/01/09 01:49:10;;;;;;;19.42;11.50;;;-7.00;99.90;;;;;;485206;245;27398;-64
2024/01/09 01:51:11;;;;;;;21.98;12.30;;;-7.00;99.90;;;;;;485201;245;28590;-64
2024/01/09 01:53:13;;;;;;;21.25;11.40;;;-7.00;99.90;;;;;;485198;245;27922;-64
2024/01/09 01:55:14;;;;;;;19.92;11.20;;;-7.00;99.90;;;;;;485145;245;29048;-65
2024/01/09 01:57:15;;;;;;;20.88;12.25;;;-7.00;99.90;;;;;;485173;245;28502;-64
2024/01/09 01:59:16;;;;;;;18.83;11.18;;;-7.00;99.90;;;;;;485185;245;28513;-65
2024/01/09 02:01:18;;;;;;;17.80;10.68;;;-7.00;99.90;;;;;;485193;245;27403;-65
2024/01/09 02:03:19;;;;;;;20.02;10.65;;;-7.00;99.90;;;;;;485206;245;27403;-64
2024/01/09 02:05:20;;;;;;;18.60;10.50;;;-7.00;99.90;;;;;;485177;245;27860;-65
2024/01/09 02:07:21;;;;;;;19.90;11.45;;;-7.00;99.90;;;;;;485201;245;27898;-64
2024/01/09 02:09:23;;;;;;;18.48;11.48;;;-7.10;99.90;;;;;;485209;245;27478;-64
2024/01/09 02:11:24;;;;;;;18.20;11.50;;;-7.00;99.90;;;;;;485201;245;27407;-65
2024/01/09 02:13:25;;;;;;;22.50;12.90;;;-7.00;99.90;;;;;;485196;245;28478;-64
2024/01/09 02:15:26;;;;;;;21.10;12.37;;;-7.10;99.90;;;;;;485159;245;27406;-65
2024/01/09 02:17:28;;;;;;;20.70;12.50;;;-7.10;99.90;;;;;;485206;245;27529;-64
2024/01/09 02:19:29;;;;;;;18.48;11.38;;;-7.10;99.90;;;;;;485207;245;27970;-65
2024/01/09 02:21:30;;;;;;;21.85;11.23;;;-7.10;99.90;;;;;;485191;245;27421;-65
2024/01/09 02:23:31;;;;;;;18.27;11.43;;;-7.10;99.90;;;;;;485187;245;27406;-64
2024/01/09 02:25:33;;;;;;;23.15;11.70;;;-7.10;99.90;;;;;;485148;245;27481;-64
2024/01/09 02:27:34;;;;;;;24.20;12.50;;;-7.10;99.90;;;;;;485185;245;27485;-65
2024/01/09 02:29:35;;;;;;;18.40;11.45;;;-7.10;99.90;;;;;;485204;245;27494;-64
2024/01/09 02:31:36;;;;;;;43.87;20.88;;;-7.10;99.90;;;;;;485199;245;29080;-65
2024/01/09 02:33:38;;;;;;;19.80;11.55;;;-7.10;99.90;;;;;;485194;245;27942;-64
2024/01/09 02:35:39;;;;;;;19.85;12.18;;;-7.10;99.90;;;;;;485168;245;27392;-64
2024/01/09 02:37:40;;;;;;;22.05;12.77;;;-7.10;99.90;;;;;;485196;245;27485;-65
2024/01/09 02:39:41;;;;;;;20.45;12.02;;;-7.10;99.90;;;;;;485188;245;27404;-64
2024/01/09 02:41:43;;;;;;;18.27;10.88;;;-7.10;99.90;;;;;;485190;245;27411;-64
2024/01/09 02:43:44;;;;;;;19.50;12.23;;;-7.10;99.90;;;;;;485184;245;29301;-64
2024/01/09 02:45:45;;;;;;;19.67;12.18;;;-7.10;99.90;;;;;;485176;245;27862;-65
2024/01/09 02:47:47;;;;;;;18.45;10.35;;;-7.10;99.90;;;;;;485210;241;28500;-64
2024/01/09 02:49:48;;;;;;;21.35;11.38;;;-7.10;99.90;;;;;;485190;245;27485;-64
2024/01/09 02:51:49;;;;;;;17.25;11.12;;;-7.10;99.90;;;;;;485181;245;27414;-64
2024/01/09 02:53:51;;;;;;;16.87;10.45;;;-7.10;99.90;;;;;;485170;245;27497;-65
2024/01/09 02:55:52;;;;;;;17.75;11.05;;;-7.10;99.90;;;;;;485165;245;27422;-64
2024/01/09 02:57:53;;;;;;;20.80;11.45;;;-7.10;99.90;;;;;;485207;245;27859;-65
2024/01/09 02:59:54;;;;;;;16.33;10.45;;;-7.20;99.90;;;;;;485212;245;27400;-64
2024/01/09 03:01:55;;;;;;;18.58;10.60;;;-7.10;99.90;;;;;;485216;245;27472;-64
2024/01/09 03:03:57;;;;;;;18.75;10.38;;;-7.10;99.90;;;;;;485183;245;27509;-65
2024/01/09 03:05:58;;;;;;;19.37;9.68;;;-7.20;99.90;;;;;;485145;245;27494;-64
2024/01/09 03:07:59;;;;;;;21.70;11.05;;;-7.10;99.90;;;;;;485218;245;27417;-64
2024/01/09 03:10:00;;;;;;;19.75;11.48;;;-7.10;99.90;;;;;;485134;245;28217;-64
2024/01/09 03:12:03;;;;;;;21.70;11.70;;;-7.10;99.90;;;;;;485218;245;27985;-64
2024/01/09 03:14:03;;;;;;;18.80;11.23;;;-7.20;99.90;;;;;;485115;245;27414;-65
2024/01/09 03:16:04;;;;;;;20.12;11.85;;;-7.20;99.90;;;;;;485213;245;27479;-64
2024/01/09 03:18:05;;;;;;;17.15;10.75;;;-7.20;99.90;;;;;;485203;245;27465;-64
2024/01/09 03:20:07;;;;;;;16.85;10.93;;;-7.20;99.90;;;;;;485219;245;27411;-66
2024/01/09 03:22:08;;;;;;;19.87;10.45;;;-7.10;99.90;;;;;;485210;245;27902;-64
2024/01/09 03:24:09;;;;;;;19.75;10.75;;;-7.20;99.90;;;;;;485170;245;27859;-65
2024/01/09 03:26:10;;;;;;;19.10;10.68;;;-7.10;99.90;;;;;;485223;245;27398;-64
2024/01/09 03:28:12;;;;;;;22.42;11.65;;;-7.20;99.90;;;;;;485221;245;27416;-65
2024/01/09 03:30:13;;;;;;;21.10;11.12;;;-7.20;99.90;;;;;;485205;245;27418;-65
2024/01/09 03:32:14;;;;;;;21.62;10.77;;;-7.20;99.90;;;;;;485198;245;27474;-64
2024/01/09 03:34:15;;;;;;;19.45;10.43;;;-7.20;99.90;;;;;;485183;245;27402;-64
2024/01/09 03:36:17;;;;;;;19.15;11.12;;;-7.20;99.90;;;;;;485257;245;28056;-64
2024/01/09 03:38:18;;;;;;;21.23;11.80;;;-7.20;99.90;;;;;;485199;245;27465;-64
2024/01/09 03:40:19;;;;;;;16.87;10.13;;;-7.20;99.90;;;;;;485211;245;27414;-64
2024/01/09 03:42:21;;;;;;;20.12;11.70;;;-7.20;99.90;;;;;;485202;245;27471;-64
2024/01/09 03:44:22;;;;;;;19.27;11.35;;;-7.20;99.90;;;;;;485184;245;27410;-65
2024/01/09 03:46:23;;;;;;;21.80;11.30;;;-7.20;99.90;;;;;;485219;245;27414;-66
2024/01/09 03:48:24;;;;;;;22.02;12.63;;;-7.20;99.90;;;;;;480760;245;27958;-64
2024/01/09 03:50:26;;;;;;;24.42;12.20;;;-7.20;99.90;;;;;;478448;247;28989;-64
2024/01/09 03:52:27;;;;;;;19.50;10.70;;;-7.20;99.90;;;;;;478441;248;27476;-65
2024/01/09 03:54:28;;;;;;;20.70;11.20;;;-7.20;99.90;;;;;;478416;248;27526;-65
2024/01/09 03:56:29;;;;;;;20.73;11.48;;;-7.30;99.90;;;;;;478440;248;28501;-64
2024/01/09 03:58:31;;;;;;;19.62;11.18;;;-7.30;99.90;;;;;;478442;248;27403;-64
2024/01/09 04:00:32;;;;;;;19.70;11.05;;;-7.20;99.90;;;;;;478446;248;27903;-65
2024/01/09 04:02:33;;;;;;;21.98;11.07;;;-7.20;99.90;;;;;;478454;248;28037;-64
2024/01/09 04:04:34;;;;;;;16.40;10.02;;;-7.20;99.90;;;;;;478410;248;27386;-65
2024/01/09 04:06:36;;;;;;;21.17;11.20;;;-7.30;99.90;;;;;;478449;248;27407;-64
2024/01/09 04:08:37;;;;;;;19.77;12.18;;;-7.30;99.90;;;;;;478447;248;27437;-64
2024/01/09 04:10:38;;;;;;;17.48;10.50;;;-7.30;99.90;;;;;;478442;248;27418;-64
2024/01/09 04:12:39;;;;;;;16.75;10.20;;;-7.20;99.90;;;;;;478437;248;27427;-65
2024/01/09 04:14:41;;;;;;;20.73;11.18;;;-7.30;99.90;;;;;;478413;248;27900;-64
2024/01/09 04:16:42;;;;;;;13.98;8.93;;;-7.30;99.90;;;;;;478457;248;27501;-65
2024/01/09 04:18:43;;;;;;;18.27;10.80;;;-7.30;99.90;;;;;;478445;248;27391;-64
2024/01/09 04:20:44;;;;;;;19.40;11.52;;;-7.30;99.90;;;;;;478448;248;27407;-64
2024/01/09 04:22:46;;;;;;;15.45;10.60;;;-7.30;99.90;;;;;;478424;248;27398;-65
2024/01/09 04:24:47;;;;;;;15.52;10.70;;;-7.30;99.90;;;;;;478407;248;27403;-64
2024/01/09 04:26:48;;;;;;;19.87;10.90;;;-7.30;99.90;;;;;;478447;248;27974;-64
2024/01/09 04:28:49;;;;;;;18.27;9.43;;;-7.30;99.90;;;;;;478441;248;28113;-64
2024/01/09 04:30:51;;;;;;;19.85;10.75;;;-7.30;99.90;;;;;;478448;248;27400;-64
2024/01/09 04:32:52;;;;;;;16.65;10.52;;;-7.30;99.90;;;;;;478436;248;28668;-65
2024/01/09 04:34:54;;;;;;;16.12;9.30;;;-7.30;99.90;;;;;;478420;248;28616;-64
2024/01/09 04:36:55;;;;;;;13.62;9.63;;;-7.30;99.90;;;;;;478435;248;27498;-65
2024/01/09 04:38:56;;;;;;;23.92;11.60;;;-7.30;99.90;;;;;;478445;248;27444;-66
2024/01/09 04:40:57;;;;;;;12.18;9.63;;;-7.30;99.90;;;;;;478436;248;27939;-64
2024/01/09 04:42:58;;;;;;;17.52;10.25;;;-7.30;99.90;;;;;;478435;248;29061;-64
2024/01/09 04:45:00;;;;;;;17.90;10.23;;;-7.30;99.90;;;;;;478404;248;27399;-64
2024/01/09 04:47:01;;;;;;;20.65;10.77;;;-7.30;99.90;;;;;;478445;248;27406;-65
2024/01/09 04:49:05;;;;;;;18.05;10.65;;;-7.30;99.90;;;;;;478439;248;27437;-64
2024/01/09 04:51:03;;;;;;;16.35;10.00;;;-7.30;99.90;;;;;;478295;248;27486;-64
2024/01/09 04:53:05;;;;;;;16.80;10.00;;;-7.30;99.90;;;;;;478446;248;27502;-64
2024/01/09 04:55:06;;;;;;;15.43;9.40;;;-7.40;99.90;;;;;;478417;248;27847;-64
2024/01/09 04:57:07;;;;;;;19.85;10.32;;;-7.40;99.90;;;;;;478432;248;27399;-64
2024/01/09 04:59:08;;;;;;;18.92;10.63;;;-7.40;99.90;;;;;;478448;247;27510;-65
2024/01/09 05:01:10;;;;;;;19.75;10.40;;;-7.40;99.90;;;;;;478439;248;27496;-64
2024/01/09 05:03:11;;;;;;;16.67;11.23;;;-7.40;99.90;;;;;;478437;248;27518;-64
2024/01/09 05:05:12;;;;;;;23.33;10.48;;;-7.40;99.90;;;;;;478422;248;27530;-65
2024/01/09 05:07:13;;;;;;;21.05;10.80;;;-7.40;99.90;;;;;;478431;248;27887;-64
2024/01/09 05:09:15;;;;;;;18.20;11.02;;;-7.40;99.90;;;;;;478445;247;27894;-65
2024/01/09 05:11:16;;;;;;;15.23;10.15;;;-7.40;99.90;;;;;;478437;248;27399;-64
2024/01/09 05:13:17;;;;;;;18.30;10.65;;;-7.30;99.90;;;;;;478439;248;27438;-64
2024/01/09 05:15:18;;;;;;;16.27;10.68;;;-7.40;99.90;;;;;;478411;248;28584;-65
2024/01/09 05:17:20;;;;;;;15.90;10.23;;;-7.40;99.90;;;;;;478441;248;27415;-64
2024/01/09 05:19:21;;;;;;;16.95;11.20;;;-7.40;99.90;;;;;;478427;248;27883;-65
2024/01/09 05:21:22;;;;;;;17.67;10.93;;;-7.40;99.90;;;;;;478433;248;27988;-64
2024/01/09 05:23:23;;;;;;;18.77;9.95;;;-7.40;99.90;;;;;;478442;248;27395;-64
2024/01/09 05:25:25;;;;;;;17.77;10.20;;;-7.40;99.90;;;;;;478428;248;27419;-65
2024/01/09 05:27:26;;;;;;;17.25;10.32;;;-7.40;99.90;;;;;;478428;247;27407;-64
2024/01/09 05:29:27;;;;;;;15.90;9.65;;;-7.40;99.90;;;;;;478441;248;27427;-65
2024/01/09 05:31:29;;;;;;;18.45;11.23;;;-7.30;99.90;;;;;;478430;248;27427;-65
2024/01/09 05:33:31;;;;;;;25.42;11.60;;;-7.40;99.90;;;;;;478431;248;29019;-65
2024/01/09 05:35:31;;;;;;;28.30;14.48;;;-7.40;99.90;;;;;;478332;248;29076;-64
2024/01/09 05:37:32;;;;;;;31.52;15.30;;;-7.40;99.90;;;;;;478440;248;27411;-64
2024/01/09 05:39:34;;;;;;;21.62;11.73;;;-7.40;99.90;;;;;;478429;248;28609;-65
2024/01/09 05:41:35;;;;;;;28.95;14.05;;;-7.40;99.90;;;;;;478422;248;27423;-65
2024/01/09 05:43:36;;;;;;;22.23;11.57;;;-7.40;99.90;;;;;;478433;248;27472;-64
2024/01/09 05:45:38;;;;;;;33.75;16.45;;;-7.40;99.90;;;;;;478403;248;27494;-64
2024/01/09 05:47:39;;;;;;;38.15;18.08;;;-7.40;99.90;;;;;;478457;248;27944;-64
2024/01/09 05:49:40;;;;;;;34.70;17.92;;;-7.50;99.90;;;;;;478431;246;27399;-65
2024/01/09 05:51:41;;;;;;;21.17;12.52;;;-7.50;99.90;;;;;;478439;248;27423;-64
2024/01/09 05:53:42;;;;;;;28.73;14.07;;;-7.40;99.90;;;;;;478435;248;27590;-64
2024/01/09 05:55:44;;;;;;;29.08;13.60;;;-7.50;99.90;;;;;;478406;248;28498;-64
2024/01/09 05:57:45;;;;;;;19.90;13.25;;;-7.50;99.90;;;;;;478433;248;27423;-65
2024/01/09 05:59:46;;;;;;;20.55;11.18;;;-7.50;99.90;;;;;;478449;248;27943;-64
2024/01/09 06:01:47;;;;;;;15.68;10.05;;;-7.50;99.90;;;;;;478437;248;27406;-65
2024/01/09 06:03:49;;;;;;;20.48;10.50;;;-7.40;99.90;;;;;;478436;248;27407;-64
2024/01/09 06:05:50;;;;;;;23.92;12.77;;;-7.50;99.90;;;;;;478411;248;27418;-65
2024/01/09 06:07:51;;;;;;;20.10;11.02;;;-7.40;99.90;;;;;;478438;248;27482;-65
2024/01/09 06:09:52;;;;;;;15.05;9.70;;;-7.50;99.90;;;;;;478427;248;28513;-64
2024/01/09 06:11:54;;;;;;;19.15;10.93;;;-7.50;99.90;;;;;;478419;248;27883;-64
2024/01/09 06:13:55;;;;;;;18.85;10.95;;;-7.40;99.90;;;;;;478406;248;28096;-64
2024/01/09 06:15:56;;;;;;;20.42;10.43;;;-7.50;99.90;;;;;;478400;248;28580;-64
2024/01/09 06:17:58;;;;;;;17.87;10.73;;;-7.50;99.90;;;;;;478433;248;27510;-64
2024/01/09 06:20:00;;;;;;;18.15;10.40;;;-7.50;99.90;;;;;;478429;248;27399;-64
2024/01/09 06:22:00;;;;;;;19.05;10.73;;;-7.50;99.90;;;;;;478358;248;27427;-64
2024/01/09 06:24:02;;;;;;;20.77;10.85;;;-7.50;99.90;;;;;;478394;248;27403;-65
2024/01/09 06:26:03;;;;;;;17.85;10.10;;;-7.50;99.90;;;;;;478430;247;29002;-64
2024/01/09 06:28:04;;;;;;;17.92;10.90;;;-7.40;99.90;;;;;;478433;248;27489;-64
2024/01/09 06:30:06;;;;;;;18.70;11.00;;;-7.40;99.90;;;;;;478430;248;27490;-63
2024/01/09 06:32:07;;;;;;;18.40;10.15;;;-7.40;99.90;;;;;;478411;248;27399;-65
2024/01/09 06:34:08;;;;;;;20.80;11.25;;;-7.50;99.90;;;;;;478398;248;27511;-65
2024/01/09 06:36:09;;;;;;;17.05;10.38;;;-7.50;99.90;;;;;;478449;248;27415;-64
2024/01/09 06:38:10;;;;;;;16.77;11.60;;;-7.50;99.90;;;;;;478466;248;27875;-64
2024/01/09 06:40:11;;;;;;;16.05;10.00;;;-7.50;99.90;;;;;;478460;248;27929;-65
2024/01/09 06:42:13;;;;;;;18.48;9.98;;;-7.50;99.90;;;;;;478452;248;27571;-64
2024/01/09 06:44:14;;;;;;;19.40;11.48;;;-7.50;99.90;;;;;;478411;248;27403;-64
2024/01/09 06:46:15;;;;;;;18.83;10.73;;;-7.50;99.90;;;;;;478463;248;27494;-64
2024/01/09 06:48:16;;;;;;;18.92;10.55;;;-7.50;99.90;;;;;;478463;248;27421;-64
2024/01/09 06:50:18;;;;;;;19.37;11.45;;;-7.50;99.90;;;;;;478431;248;27863;-66
2024/01/09 06:52:19;;;;;;;17.33;11.00;;;-7.50;99.90;;;;;;478455;248;28973;-64
2024/01/09 06:54:20;;;;;;;19.02;10.60;;;-7.50;99.90;;;;;;478422;248;27416;-64
2024/01/09 06:56:21;;;;;;;20.50;10.40;;;-7.50;99.90;;;;;;478459;248;27394;-64
2024/01/09 06:58:23;;;;;;;18.12;10.68;;;-7.50;99.90;;;;;;478454;248;27419;-64
2024/01/09 07:00:24;;;;;;;17.58;10.30;;;-7.50;99.90;;;;;;478468;248;27498;-64
2024/01/09 07:02:25;;;;;;;16.95;10.35;;;-7.50;99.90;;;;;;478452;248;27411;-64
2024/01/09 07:04:26;;;;;;;20.40;11.98;;;-7.50;99.90;;;;;;478416;248;27867;-64
2024/01/09 07:06:28;;;;;;;19.35;11.60;;;-7.60;99.90;;;;;;478451;248;27411;-65
2024/01/09 07:08:29;;;;;;;19.10;11.00;;;-7.50;99.90;;;;;;478433;248;28510;-64
2024/01/09 07:10:30;;;;;;;19.58;10.55;;;-7.60;99.90;;;;;;478352;248;28500;-65
2024/01/09 07:12:32;;;;;;;19.87;10.18;;;-7.60;99.90;;;;;;478403;248;27498;-64
2024/01/09 07:14:33;;;;;;;21.85;12.20;;;-7.60;99.90;;;;;;478324;248;27431;-64
2024/01/09 07:16:34;;;;;;;16.27;10.45;;;-7.60;99.90;;;;;;478362;248;27985;-65
2024/01/09 07:18:35;;;;;;;21.05;12.52;;;-7.60;99.90;;;;;;478450;248;27879;-64
2024/01/09 07:20:37;;;;;;;27.40;13.65;;;-7.60;99.90;;;;;;478471;248;27415;-64
2024/01/09 07:22:38;;;;;;;29.42;14.27;;;-7.50;99.90;;;;;;478443;248;27427;-64
2024/01/09 07:24:39;;;;;;;27.50;13.25;;;-7.50;99.90;;;;;;478427;248;27390;-64
2024/01/09 07:26:41;;;;;;;32.83;15.15;;;-7.60;99.90;;;;;;478444;248;27418;-65
2024/01/09 07:28:42;;;;;;;33.70;16.35;;;-7.50;99.90;;;;;;478452;248;27961;-64
2024/01/09 07:30:43;;;;;;;26.65;14.95;;;-7.60;99.90;;;;;;478447;248;27973;-64
2024/01/09 07:32:44;;;;;;;31.92;14.50;;;-7.50;99.90;;;;;;478447;248;27509;-65
2024/01/09 07:34:45;;;;;;;28.87;14.27;;;-7.60;99.90;;;;;;478418;248;27419;-64
2024/01/09 07:36:47;;;;;;;27.83;14.50;;;-7.60;99.90;;;;;;478447;248;27509;-65
2024/01/09 07:38:48;;;;;;;27.15;15.55;;;-7.60;99.90;;;;;;478451;248;27419;-64
2024/01/09 07:40:49;;;;;;;21.55;12.23;;;-7.50;99.90;;;;;;478439;248;27504;-64
2024/01/09 07:42:50;;;;;;;25.00;13.30;;;-7.50;99.90;;;;;;478433;248;28993;-65
2024/01/09 07:44:52;;;;;;;22.83;13.05;;;-7.50;99.90;;;;;;478415;248;27470;-64
2024/01/09 07:46:53;;;;;;;22.10;13.15;;;-7.50;99.90;;;;;;478447;248;27451;-64
2024/01/09 07:48:54;;;;;;;23.02;13.90;;;-7.40;99.90;;;;;;478433;248;27419;-64
2024/01/09 07:50:56;;;;;;;22.25;12.60;;;-7.50;99.90;;;;;;478440;248;27422;-64
2024/01/09 07:52:57;;;;;;;18.27;10.82;;;-7.50;99.90;;;;;;478385;248;28584;-64
2024/01/09 07:54:58;;;;;;;19.42;10.45;;;-7.40;99.90;;;;;;478438;248;27964;-64
2024/01/09 07:56:59;;;;;;;17.17;9.45;;;-7.40;99.90;;;;;;478431;248;27875;-64
2024/01/09 07:59:00;;;;;;;17.52;11.27;;;-7.30;99.90;;;;;;478428;246;28521;-65
2024/01/09 08:01:02;;;;;;;18.17;11.43;;;-7.30;99.90;;;;;;478440;248;27415;-64
2024/01/09 08:03:03;;;;;;;19.45;11.52;;;-7.30;99.90;;;;;;478441;248;27526;-64
2024/01/09 08:05:04;;;;;;;17.12;10.25;;;-7.30;99.90;;;;;;478406;248;27489;-64
2024/01/09 08:07:06;;;;;;;19.67;11.07;;;-7.30;99.90;;;;;;478443;248;27426;-65
2024/01/09 08:09:07;;;;;;;18.60;11.12;;;-7.30;99.90;;;;;;478420;248;28978;-65
2024/01/09 08:11:08;;;;;;;16.87;10.18;;;-7.30;99.90;;;;;;478434;248;28589;-64
2024/01/09 08:13:09;;;;;;;14.95;9.23;;;-7.30;99.90;;;;;;478445;248;27493;-65
2024/01/09 08:15:11;;;;;;;19.10;11.07;;;-7.30;99.90;;;;;;478418;248;27414;-64
2024/01/09 08:17:12;;;;;;;21.05;11.25;;;-7.20;99.90;;;;;;478462;248;27422;-64
2024/01/09 08:19:13;;;;;;;17.87;10.75;;;-7.20;99.90;;;;;;478441;248;27450;-65
2024/01/09 08:21:14;;;;;;;18.37;10.15;;;-7.30;99.90;;;;;;478428;247;27875;-64
2024/01/09 08:23:16;;;;;;;19.00;10.95;;;-7.20;99.90;;;;;;478453;248;27964;-64
2024/01/09 08:25:17;;;;;;;16.45;10.02;;;-7.10;99.90;;;;;;478405;248;28498;-65
2024/01/09 08:27:18;;;;;;;15.50;10.00;;;-7.20;99.90;;;;;;478436;248;27419;-64
2024/01/09 08:29:20;;;;;;;15.88;8.93;;;-7.10;99.90;;;;;;478369;248;27423;-65
2024/01/09 08:31:21;;;;;;;16.27;10.55;;;-7.10;99.90;;;;;;478418;248;27526;-65
2024/01/09 08:33:22;;;;;;;19.02;10.80;;;-7.00;99.90;;;;;;478444;248;27880;-64
2024/01/09 08:35:23;;;;;;;19.58;9.82;;;-7.00;99.90;;;;;;478396;248;27914;-65
2024/01/09 08:37:24;;;;;;;14.55;9.43;;;-6.90;99.90;;;;;;478443;248;27477;-65
2024/01/09 08:39:26;;;;;;;18.05;10.35;;;-6.90;99.90;;;;;;478452;248;27415;-65
2024/01/09 08:41:27;;;;;;;19.58;10.43;;;-6.80;99.90;;;;;;478449;248;27415;-64
2024/01/09 08:43:28;;;;;;;18.67;10.73;;;-7.00;99.90;;;;;;478447;248;27528;-64
2024/01/09 08:45:30;;;;;;;21.40;9.50;;;-7.00;99.90;;;;;;478410;248;27501;-66
2024/01/09 08:47:31;;;;;;;17.48;9.80;;;-7.00;99.90;;;;;;478444;248;27995;-64
2024/01/09 08:49:32;;;;;;;18.80;11.00;;;-6.90;99.90;;;;;;478448;248;29067;-64
2024/01/09 08:51:35;;;;;;;19.80;11.10;;;-6.80;99.90;;;;;;478427;248;27447;-65
2024/01/09 08:53:34;;;;;;;16.17;10.10;;;-6.80;99.90;;;;;;478364;248;27407;-64
2024/01/09 08:55:36;;;;;;;17.37;10.63;;;-6.80;99.90;;;;;;478417;247;27427;-65
2024/01/09 08:57:37;;;;;;;15.30;9.68;;;-6.70;99.90;;;;;;478442;248;27414;-64
2024/01/09 08:59:38;;;;;;;16.15;9.85;;;-6.70;99.90;;;;;;478441;248;27490;-64
2024/01/09 09:01:40;;;;;;;18.52;10.50;;;-6.60;99.90;;;;;;478428;248;27982;-65
2024/01/09 09:03:41;;;;;;;18.05;10.52;;;-6.60;99.90;;;;;;478355;248;27965;-65
2024/01/09 09:05:42;;;;;;;17.90;10.07;;;-6.50;99.90;;;;;;478406;248;27391;-64
2024/01/09 09:07:43;;;;;;;18.15;10.52;;;-6.50;99.90;;;;;;478445;246;27434;-64
2024/01/09 09:09:45;;;;;;;16.67;10.00;;;-6.50;99.90;;;;;;478438;248;27479;-64
2024/01/09 09:11:46;;;;;;;18.77;11.38;;;-6.50;99.90;;;;;;478467;248;27415;-65
2024/01/09 09:13:47;;;;;;;17.77;11.05;;;-6.50;99.90;;;;;;478445;248;27857;-64
2024/01/09 09:15:48;;;;;;;15.50;8.75;;;-6.40;99.90;;;;;;478405;248;27969;-65
2024/01/09 09:17:50;;;;;;;16.75;9.02;;;-6.40;99.90;;;;;;478439;248;27467;-65
2024/01/09 09:19:51;;;;;;;15.75;10.05;;;-6.30;99.90;;;;;;478440;248;27411;-64
2024/01/09 09:21:53;;;;;;;13.30;8.35;;;-6.30;99.90;;;;;;478425;248;28502;-65
2024/01/09 09:23:53;;;;;;;16.02;9.57;;;-6.20;99.90;;;;;;478396;248;27427;-64
2024/01/09 09:25:55;;;;;;;17.45;10.75;;;-6.20;99.90;;;;;;478428;248;27501;-64
2024/01/09 09:27:56;;;;;;;16.77;10.30;;;-6.10;99.90;;;;;;478438;248;27898;-65
2024/01/09 09:29:57;;;;;;;15.77;9.30;;;-6.00;99.90;;;;;;478438;248;27886;-64
2024/01/09 09:31:58;;;;;;;16.67;9.80;;;-6.00;99.90;;;;;;478436;248;27410;-64
2024/01/09 09:34:00;;;;;;;18.08;9.98;;;-6.00;99.90;;;;;;478405;248;27470;-64
2024/01/09 09:36:01;;;;;;;20.60;10.77;;;-5.90;99.90;;;;;;478442;248;27532;-65
2024/01/09 09:38:02;;;;;;;19.20;10.10;;;-5.90;99.90;;;;;;478438;248;27407;-65
2024/01/09 09:40:04;;;;;;;18.98;10.00;;;-5.80;99.90;;;;;;478435;248;27486;-65
2024/01/09 09:42:05;;;;;;;18.48;10.50;;;-5.80;99.90;;;;;;478429;248;27954;-64
2024/01/09 09:44:06;;;;;;;18.02;10.13;;;-5.70;99.90;;;;;;478410;248;27989;-66
2024/01/09 09:46:07;;;;;;;16.25;9.75;;;-5.60;99.90;;;;;;478430;248;27486;-65
2024/01/09 09:48:08;;;;;;;17.25;10.05;;;-5.60;99.90;;;;;;478441;248;27423;-65
2024/01/09 09:50:10;;;;;;;17.27;9.80;;;-5.50;99.90;;;;;;478431;248;27427;-64
2024/01/09 09:52:11;;;;;;;15.65;9.40;;;-5.50;99.90;;;;;;478424;248;27415;-65
2024/01/09 09:54:12;;;;;;;18.10;8.80;;;-5.40;99.90;;;;;;478400;248;27542;-65
2024/01/09 09:56:13;;;;;;;17.58;10.88;;;-5.40;99.90;;;;;;478433;248;27950;-64
2024/01/09 09:58:15;;;;;;;15.90;10.07;;;-5.30;99.90;;;;;;478419;248;28981;-65
2024/01/09 10:00:16;;;;;;;17.33;9.82;;;-5.20;99.90;;;;;;478417;248;27515;-64
2024/01/09 10:02:17;;;;;;;14.80;9.00;;;-5.10;99.90;;;;;;478428;248;27395;-65
2024/01/09 10:04:19;;;;;;;13.57;9.23;;;-5.00;99.90;;;;;;478427;248;27411;-65
2024/01/09 10:06:20;;;;;;;15.98;10.50;;;-4.90;99.90;;;;;;478439;248;27399;-65
2024/01/09 10:08:21;;;;;;;16.15;9.70;;;-4.80;99.90;;;;;;478454;248;27427;-64
2024/01/09 10:10:23;;;;;;;14.35;9.75;;;-4.80;99.90;;;;;;478459;248;27825;-65
2024/01/09 10:12:24;;;;;;;16.65;9.55;;;-4.60;99.90;;;;;;478434;248;27903;-64
2024/01/09 10:14:25;;;;;;;15.48;9.05;;;-4.60;99.90;;;;;;478394;248;27443;-64